sensor_id;sensor_type;location;lat;lon;timestamp;temperature;humidity
15359;DHT22;7779;49.596;11.070;2022-10-16T00:01:09;17.80;81.20
15359;DHT22;7779;49.596;11.070;2022-10-16T00:03:40;17.80;80.60
15359;DHT22;7779;49.596;11.070;2022-10-16T00:06:09;17.70;80.40
15359;DHT22;7779;49.596;11.070;2022-10-16T00:08:37;17.70;80.30
15359;DHT22;7779;49.596;11.070;2022-10-16T00:11:16;17.70;80.30
15359;DHT22;7779;49.596;11.070;2022-10-16T00:13:44;17.70;80.70
15359;DHT22;7779;49.596;11.070;2022-10-16T00:16:12;17.70;80.50
15359;DHT22;7779;49.596;11.070;2022-10-16T00:18:39;17.70;80.50
15359;DHT22;7779;49.596;11.070;2022-10-16T00:21:12;17.70;80.60
15359;DHT22;7779;49.596;11.070;2022-10-16T00:23:41;17.70;80.70
15359;DHT22;7779;49.596;11.070;2022-10-16T00:26:13;17.70;80.70
15359;DHT22;7779;49.596;11.070;2022-10-16T00:28:40;17.70;80.90
15359;DHT22;7779;49.596;11.070;2022-10-16T00:31:08;17.70;80.80
15359;DHT22;7779;49.596;11.070;2022-10-16T00:33:36;17.70;80.90
15359;DHT22;7779;49.596;11.070;2022-10-16T00:36:04;17.70;80.90
15359;DHT22;7779;49.596;11.070;2022-10-16T00:38:32;17.70;80.90
15359;DHT22;7779;49.596;11.070;2022-10-16T00:40:58;17.70;80.90
15359;DHT22;7779;49.596;11.070;2022-10-16T00:43:40;17.60;80.70
15359;DHT22;7779;49.596;11.070;2022-10-16T00:46:15;17.60;81.00
15359;DHT22;7779;49.596;11.070;2022-10-16T00:49:09;17.60;80.60
15359;DHT22;7779;49.596;11.070;2022-10-16T00:51:51;17.70;81.10
15359;DHT22;7779;49.596;11.070;2022-10-16T00:54:29;17.60;80.90
15359;DHT22;7779;49.596;11.070;2022-10-16T00:57:03;17.60;80.90
15359;DHT22;7779;49.596;11.070;2022-10-16T00:59:34;17.60;80.60
15359;DHT22;7779;49.596;11.070;2022-10-16T01:02:04;17.60;80.70
15359;DHT22;7779;49.596;11.070;2022-10-16T01:04:35;17.50;80.60
15359;DHT22;7779;49.596;11.070;2022-10-16T01:15:37;17.50;80.80
15359;DHT22;7779;49.596;11.070;2022-10-16T01:18:32;17.50;81.00
15359;DHT22;7779;49.596;11.070;2022-10-16T01:21:06;17.40;81.20
15359;DHT22;7779;49.596;11.070;2022-10-16T01:32:25;17.40;81.70
15359;DHT22;7779;49.596;11.070;2022-10-16T01:35:10;17.40;81.60
15359;DHT22;7779;49.596;11.070;2022-10-16T01:40:24;17.40;81.60
15359;DHT22;7779;49.596;11.070;2022-10-16T01:43:18;17.40;81.30
15359;DHT22;7779;49.596;11.070;2022-10-16T01:45:48;17.40;82.00
15359;DHT22;7779;49.596;11.070;2022-10-16T01:48:18;17.30;81.10
15359;DHT22;7779;49.596;11.070;2022-10-16T01:50:56;17.30;81.30
15359;DHT22;7779;49.596;11.070;2022-10-16T01:53:26;17.30;81.40
15359;DHT22;7779;49.596;11.070;2022-10-16T01:55:54;17.30;81.20
15359;DHT22;7779;49.596;11.070;2022-10-16T01:58:24;17.30;81.30
15359;DHT22;7779;49.596;11.070;2022-10-16T02:00:53;17.30;81.40
15359;DHT22;7779;49.596;11.070;2022-10-16T02:03:22;17.30;81.60
15359;DHT22;7779;49.596;11.070;2022-10-16T02:05:56;17.30;81.60
15359;DHT22;7779;49.596;11.070;2022-10-16T02:08:25;17.30;82.10
15359;DHT22;7779;49.596;11.070;2022-10-16T02:10:55;17.30;81.90
15359;DHT22;7779;49.596;11.070;2022-10-16T02:13:30;17.30;82.00
15359;DHT22;7779;49.596;11.070;2022-10-16T02:16:01;17.30;82.20
15359;DHT22;7779;49.596;11.070;2022-10-16T02:18:27;17.30;82.10
15359;DHT22;7779;49.596;11.070;2022-10-16T02:26:36;17.40;82.40
15359;DHT22;7779;49.596;11.070;2022-10-16T02:29:12;17.40;83.00
15359;DHT22;7779;49.596;11.070;2022-10-16T02:31:45;17.40;82.20
15359;DHT22;7779;49.596;11.070;2022-10-16T02:34:16;17.50;82.40
15359;DHT22;7779;49.596;11.070;2022-10-16T02:36:44;17.40;82.10
15359;DHT22;7779;49.596;11.070;2022-10-16T02:39:13;17.50;82.20
15359;DHT22;7779;49.596;11.070;2022-10-16T02:41:40;17.50;82.10
15359;DHT22;7779;49.596;11.070;2022-10-16T02:44:06;17.50;82.10
15359;DHT22;7779;49.596;11.070;2022-10-16T02:46:32;17.50;82.00
15359;DHT22;7779;49.596;11.070;2022-10-16T02:48:57;17.50;81.90
15359;DHT22;7779;49.596;11.070;2022-10-16T02:51:23;17.50;81.80
15359;DHT22;7779;49.596;11.070;2022-10-16T02:53:49;17.50;81.80
15359;DHT22;7779;49.596;11.070;2022-10-16T02:56:15;17.50;81.80
15359;DHT22;7779;49.596;11.070;2022-10-16T02:58:40;17.50;81.90
15359;DHT22;7779;49.596;11.070;2022-10-16T03:01:06;17.50;81.90
15359;DHT22;7779;49.596;11.070;2022-10-16T03:03:32;17.50;82.00
15359;DHT22;7779;49.596;11.070;2022-10-16T03:05:57;17.50;81.90
15359;DHT22;7779;49.596;11.070;2022-10-16T03:08:23;17.50;81.90
15359;DHT22;7779;49.596;11.070;2022-10-16T03:10:51;17.60;82.00
15359;DHT22;7779;49.596;11.070;2022-10-16T03:13:17;17.60;82.00
15359;DHT22;7779;49.596;11.070;2022-10-16T03:15:45;17.50;81.90
15359;DHT22;7779;49.596;11.070;2022-10-16T03:18:11;17.60;82.00
15359;DHT22;7779;49.596;11.070;2022-10-16T03:20:37;17.60;81.90
15359;DHT22;7779;49.596;11.070;2022-10-16T03:23:03;17.60;81.80
15359;DHT22;7779;49.596;11.070;2022-10-16T03:25:29;17.60;81.80
15359;DHT22;7779;49.596;11.070;2022-10-16T03:27:55;17.50;81.70
15359;DHT22;7779;49.596;11.070;2022-10-16T03:30:21;17.60;81.80
15359;DHT22;7779;49.596;11.070;2022-10-16T03:32:46;17.60;81.70
15359;DHT22;7779;49.596;11.070;2022-10-16T03:35:12;17.50;81.60
15359;DHT22;7779;49.596;11.070;2022-10-16T03:37:38;17.60;81.70
15359;DHT22;7779;49.596;11.070;2022-10-16T03:40:04;17.60;81.60
15359;DHT22;7779;49.596;11.070;2022-10-16T03:42:31;17.60;81.60
15359;DHT22;7779;49.596;11.070;2022-10-16T03:44:56;17.60;81.70
15359;DHT22;7779;49.596;11.070;2022-10-16T03:47:22;17.60;81.60
15359;DHT22;7779;49.596;11.070;2022-10-16T03:49:49;17.50;81.60
15359;DHT22;7779;49.596;11.070;2022-10-16T03:52:16;17.50;81.60
15359;DHT22;7779;49.596;11.070;2022-10-16T03:54:41;17.50;81.60
15359;DHT22;7779;49.596;11.070;2022-10-16T03:57:07;17.50;81.70
15359;DHT22;7779;49.596;11.070;2022-10-16T03:59:33;17.50;81.70
15359;DHT22;7779;49.596;11.070;2022-10-16T04:01:59;17.50;81.80
15359;DHT22;7779;49.596;11.070;2022-10-16T04:04:24;17.50;81.80
15359;DHT22;7779;49.596;11.070;2022-10-16T04:06:50;17.50;81.40
15359;DHT22;7779;49.596;11.070;2022-10-16T04:09:16;17.50;81.80
15359;DHT22;7779;49.596;11.070;2022-10-16T04:11:42;17.50;81.80
15359;DHT22;7779;49.596;11.070;2022-10-16T04:14:08;17.50;81.80
15359;DHT22;7779;49.596;11.070;2022-10-16T04:16:34;17.50;81.90
15359;DHT22;7779;49.596;11.070;2022-10-16T04:18:59;17.50;82.00
15359;DHT22;7779;49.596;11.070;2022-10-16T04:21:25;17.50;82.00
15359;DHT22;7779;49.596;11.070;2022-10-16T04:23:51;17.50;82.10
15359;DHT22;7779;49.596;11.070;2022-10-16T04:26:17;17.50;82.10
15359;DHT22;7779;49.596;11.070;2022-10-16T04:28:43;17.50;82.10
15359;DHT22;7779;49.596;11.070;2022-10-16T04:31:08;17.50;82.20
15359;DHT22;7779;49.596;11.070;2022-10-16T04:33:34;17.50;82.10
15359;DHT22;7779;49.596;11.070;2022-10-16T04:36:01;17.50;82.10
15359;DHT22;7779;49.596;11.070;2022-10-16T04:38:28;17.60;82.20
15359;DHT22;7779;49.596;11.070;2022-10-16T04:40:55;17.50;82.10
15359;DHT22;7779;49.596;11.070;2022-10-16T04:43:21;17.50;82.10
15359;DHT22;7779;49.596;11.070;2022-10-16T04:45:47;17.50;82.00
15359;DHT22;7779;49.596;11.070;2022-10-16T04:48:15;17.60;82.10
15359;DHT22;7779;49.596;11.070;2022-10-16T04:50:41;17.50;82.00
15359;DHT22;7779;49.596;11.070;2022-10-16T04:53:07;17.50;82.00
15359;DHT22;7779;49.596;11.070;2022-10-16T04:55:33;17.60;82.10
15359;DHT22;7779;49.596;11.070;2022-10-16T04:57:58;17.50;82.00
15359;DHT22;7779;49.596;11.070;2022-10-16T05:00:25;17.50;82.00
15359;DHT22;7779;49.596;11.070;2022-10-16T05:02:51;17.50;82.10
15359;DHT22;7779;49.596;11.070;2022-10-16T05:05:17;17.50;82.10
15359;DHT22;7779;49.596;11.070;2022-10-16T05:07:45;17.50;82.10
15359;DHT22;7779;49.596;11.070;2022-10-16T05:10:12;17.50;82.00
15359;DHT22;7779;49.596;11.070;2022-10-16T05:12:37;17.50;82.70
15359;DHT22;7779;49.596;11.070;2022-10-16T05:15:03;17.50;82.00
15359;DHT22;7779;49.596;11.070;2022-10-16T05:17:30;17.50;82.10
15359;DHT22;7779;49.596;11.070;2022-10-16T05:19:56;17.50;82.00
15359;DHT22;7779;49.596;11.070;2022-10-16T05:22:21;17.50;82.60
15359;DHT22;7779;49.596;11.070;2022-10-16T05:24:47;17.50;81.90
15359;DHT22;7779;49.596;11.070;2022-10-16T05:27:13;17.50;81.80
15359;DHT22;7779;49.596;11.070;2022-10-16T05:29:45;17.50;81.80
15359;DHT22;7779;49.596;11.070;2022-10-16T05:32:13;17.50;81.80
15359;DHT22;7779;49.596;11.070;2022-10-16T05:34:40;17.40;81.60
15359;DHT22;7779;49.596;11.070;2022-10-16T05:37:06;17.40;81.50
15359;DHT22;7779;49.596;11.070;2022-10-16T05:39:32;17.40;81.60
15359;DHT22;7779;49.596;11.070;2022-10-16T05:41:58;17.40;81.60
15359;DHT22;7779;49.596;11.070;2022-10-16T05:44:23;17.30;81.60
15359;DHT22;7779;49.596;11.070;2022-10-16T05:46:49;17.30;81.80
15359;DHT22;7779;49.596;11.070;2022-10-16T05:49:15;17.20;81.80
15359;DHT22;7779;49.596;11.070;2022-10-16T05:51:41;17.30;82.00
15359;DHT22;7779;49.596;11.070;2022-10-16T05:54:08;17.30;82.10
15359;DHT22;7779;49.596;11.070;2022-10-16T05:56:34;17.20;82.10
15359;DHT22;7779;49.596;11.070;2022-10-16T05:59:00;17.20;82.10
15359;DHT22;7779;49.596;11.070;2022-10-16T06:01:25;17.20;82.20
15359;DHT22;7779;49.596;11.070;2022-10-16T06:03:52;17.20;82.40
15359;DHT22;7779;49.596;11.070;2022-10-16T06:06:24;17.20;82.50
15359;DHT22;7779;49.596;11.070;2022-10-16T06:08:52;17.20;82.70
15359;DHT22;7779;49.596;11.070;2022-10-16T06:11:22;17.20;82.70
15359;DHT22;7779;49.596;11.070;2022-10-16T06:13:56;17.20;82.90
15359;DHT22;7779;49.596;11.070;2022-10-16T06:16:27;17.20;83.10
15359;DHT22;7779;49.596;11.070;2022-10-16T06:18:55;17.30;83.20
15359;DHT22;7779;49.596;11.070;2022-10-16T06:21:26;17.30;83.30
15359;DHT22;7779;49.596;11.070;2022-10-16T06:23:53;17.30;83.40
15359;DHT22;7779;49.596;11.070;2022-10-16T06:26:22;17.30;83.30
15359;DHT22;7779;49.596;11.070;2022-10-16T06:28:50;17.30;83.30
15359;DHT22;7779;49.596;11.070;2022-10-16T06:31:16;17.40;83.40
15359;DHT22;7779;49.596;11.070;2022-10-16T06:33:42;17.40;83.30
15359;DHT22;7779;49.596;11.070;2022-10-16T06:36:13;17.40;83.20
15359;DHT22;7779;49.596;11.070;2022-10-16T06:38:41;17.40;83.20
15359;DHT22;7779;49.596;11.070;2022-10-16T06:41:09;17.40;83.10
15359;DHT22;7779;49.596;11.070;2022-10-16T06:43:37;17.50;83.20
15359;DHT22;7779;49.596;11.070;2022-10-16T06:46:04;17.50;83.20
15359;DHT22;7779;49.596;11.070;2022-10-16T06:48:31;17.50;83.10
15359;DHT22;7779;49.596;11.070;2022-10-16T06:53:32;17.60;83.10
15359;DHT22;7779;49.596;11.070;2022-10-16T06:56:15;17.60;83.00
15359;DHT22;7779;49.596;11.070;2022-10-16T06:58:42;17.60;83.20
15359;DHT22;7779;49.596;11.070;2022-10-16T07:01:09;17.60;82.90
15359;DHT22;7779;49.596;11.070;2022-10-16T07:03:37;17.60;82.90
15359;DHT22;7779;49.596;11.070;2022-10-16T07:06:05;17.60;82.90
15359;DHT22;7779;49.596;11.070;2022-10-16T07:08:38;17.70;83.00
15359;DHT22;7779;49.596;11.070;2022-10-16T07:11:10;17.70;83.00
15359;DHT22;7779;49.596;11.070;2022-10-16T07:13:40;17.70;83.00
15359;DHT22;7779;49.596;11.070;2022-10-16T07:16:16;17.70;82.90
15359;DHT22;7779;49.596;11.070;2022-10-16T07:18:44;17.70;83.00
15359;DHT22;7779;49.596;11.070;2022-10-16T07:21:17;17.70;83.00
15359;DHT22;7779;49.596;11.070;2022-10-16T07:23:52;17.70;83.20
15359;DHT22;7779;49.596;11.070;2022-10-16T07:26:19;17.80;83.20
15359;DHT22;7779;49.596;11.070;2022-10-16T07:28:46;17.80;83.20
15359;DHT22;7779;49.596;11.070;2022-10-16T07:31:14;17.80;83.20
15359;DHT22;7779;49.596;11.070;2022-10-16T07:33:42;17.80;83.80
15359;DHT22;7779;49.596;11.070;2022-10-16T07:36:09;17.90;83.30
15359;DHT22;7779;49.596;11.070;2022-10-16T07:38:35;17.90;83.40
15359;DHT22;7779;49.596;11.070;2022-10-16T07:41:06;17.90;84.10
15359;DHT22;7779;49.596;11.070;2022-10-16T07:43:33;18.00;83.60
15359;DHT22;7779;49.596;11.070;2022-10-16T07:46:00;18.00;83.50
15359;DHT22;7779;49.596;11.070;2022-10-16T07:48:30;18.00;83.40
15359;DHT22;7779;49.596;11.070;2022-10-16T07:50:59;18.00;83.50
15359;DHT22;7779;49.596;11.070;2022-10-16T07:53:26;18.10;83.60
15359;DHT22;7779;49.596;11.070;2022-10-16T07:55:56;18.10;83.70
15359;DHT22;7779;49.596;11.070;2022-10-16T07:58:32;18.20;83.80
15359;DHT22;7779;49.596;11.070;2022-10-16T08:01:03;18.20;83.70
15359;DHT22;7779;49.596;11.070;2022-10-16T08:03:31;18.30;83.60
15359;DHT22;7779;49.596;11.070;2022-10-16T08:05:57;18.40;83.70
15359;DHT22;7779;49.596;11.070;2022-10-16T08:08:23;18.40;83.80
15359;DHT22;7779;49.596;11.070;2022-10-16T08:10:49;18.50;84.00
15359;DHT22;7779;49.596;11.070;2022-10-16T08:13:15;18.60;83.90
15359;DHT22;7779;49.596;11.070;2022-10-16T08:15:42;18.70;83.80
15359;DHT22;7779;49.596;11.070;2022-10-16T08:18:09;18.70;83.50
15359;DHT22;7779;49.596;11.070;2022-10-16T08:20:36;18.80;83.20
15359;DHT22;7779;49.596;11.070;2022-10-16T08:23:02;18.80;82.90
15359;DHT22;7779;49.596;11.070;2022-10-16T08:25:28;18.90;82.80
15359;DHT22;7779;49.596;11.070;2022-10-16T08:27:54;18.90;82.50
15359;DHT22;7779;49.596;11.070;2022-10-16T08:30:22;19.00;82.30
15359;DHT22;7779;49.596;11.070;2022-10-16T08:32:49;18.90;82.10
15359;DHT22;7779;49.596;11.070;2022-10-16T08:35:15;19.00;82.30
15359;DHT22;7779;49.596;11.070;2022-10-16T08:37:42;19.10;82.30
15359;DHT22;7779;49.596;11.070;2022-10-16T08:40:38;19.10;82.40
15359;DHT22;7779;49.596;11.070;2022-10-16T08:48:30;19.40;81.40
15359;DHT22;7779;49.596;11.070;2022-10-16T08:51:03;19.50;82.70
15359;DHT22;7779;49.596;11.070;2022-10-16T08:53:35;19.60;83.00
15359;DHT22;7779;49.596;11.070;2022-10-16T08:56:08;19.70;82.90
15359;DHT22;7779;49.596;11.070;2022-10-16T08:58:33;19.80;82.80
15359;DHT22;7779;49.596;11.070;2022-10-16T09:01:13;19.90;82.50
15359;DHT22;7779;49.596;11.070;2022-10-16T09:07:01;20.10;80.60
15359;DHT22;7779;49.596;11.070;2022-10-16T09:09:55;20.10;81.20
15359;DHT22;7779;49.596;11.070;2022-10-16T09:12:52;20.20;81.40
15359;DHT22;7779;49.596;11.070;2022-10-16T09:18:27;20.50;80.70
15359;DHT22;7779;49.596;11.070;2022-10-16T09:21:15;20.50;80.20
15359;DHT22;7779;49.596;11.070;2022-10-16T09:23:45;20.60;80.50
15359;DHT22;7779;49.596;11.070;2022-10-16T09:26:13;20.70;80.60
15359;DHT22;7779;49.596;11.070;2022-10-16T09:28:41;20.70;80.10
15359;DHT22;7779;49.596;11.070;2022-10-16T09:31:16;20.80;80.10
15359;DHT22;7779;49.596;11.070;2022-10-16T09:33:47;20.80;78.60
15359;DHT22;7779;49.596;11.070;2022-10-16T09:36:17;20.90;79.50
15359;DHT22;7779;49.596;11.070;2022-10-16T09:38:44;21.00;79.10
15359;DHT22;7779;49.596;11.070;2022-10-16T09:41:17;21.00;78.80
15359;DHT22;7779;49.596;11.070;2022-10-16T09:43:55;21.10;77.70
15359;DHT22;7779;49.596;11.070;2022-10-16T09:46:29;21.10;77.10
15359;DHT22;7779;49.596;11.070;2022-10-16T09:48:58;21.10;77.60
15359;DHT22;7779;49.596;11.070;2022-10-16T09:51:34;21.10;77.70
15359;DHT22;7779;49.596;11.070;2022-10-16T09:56:34;21.10;77.30
15359;DHT22;7779;49.596;11.070;2022-10-16T09:59:10;21.20;77.20
15359;DHT22;7779;49.596;11.070;2022-10-16T10:01:43;21.20;76.40
15359;DHT22;7779;49.596;11.070;2022-10-16T10:04:11;21.20;77.10
15359;DHT22;7779;49.596;11.070;2022-10-16T10:06:44;21.20;77.20
15359;DHT22;7779;49.596;11.070;2022-10-16T10:09:37;21.20;76.60
15359;DHT22;7779;49.596;11.070;2022-10-16T10:12:05;21.20;75.90
15359;DHT22;7779;49.596;11.070;2022-10-16T10:14:48;21.30;77.50
15359;DHT22;7779;49.596;11.070;2022-10-16T10:17:26;21.30;77.20
15359;DHT22;7779;49.596;11.070;2022-10-16T10:19:54;21.40;76.70
15359;DHT22;7779;49.596;11.070;2022-10-16T10:22:42;21.40;77.50
15359;DHT22;7779;49.596;11.070;2022-10-16T10:33:09;21.60;75.90
15359;DHT22;7779;49.596;11.070;2022-10-16T10:39:00;21.70;76.70
15359;DHT22;7779;49.596;11.070;2022-10-16T10:47:05;21.80;75.60
15359;DHT22;7779;49.596;11.070;2022-10-16T10:55:31;22.00;74.60
15359;DHT22;7779;49.596;11.070;2022-10-16T11:08:17;22.10;73.70
15359;DHT22;7779;49.596;11.070;2022-10-16T11:13:52;22.20;74.60
15359;DHT22;7779;49.596;11.070;2022-10-16T11:16:30;22.30;74.00
15359;DHT22;7779;49.596;11.070;2022-10-16T11:19:34;22.30;74.60
15359;DHT22;7779;49.596;11.070;2022-10-16T11:22:18;22.40;73.60
15359;DHT22;7779;49.596;11.070;2022-10-16T11:30:49;22.50;74.40
15359;DHT22;7779;49.596;11.070;2022-10-16T11:33:27;22.50;73.50
15359;DHT22;7779;49.596;11.070;2022-10-16T11:36:38;22.50;73.50
15359;DHT22;7779;49.596;11.070;2022-10-16T11:42:09;22.50;73.40
15359;DHT22;7779;49.596;11.070;2022-10-16T11:51:20;22.40;72.20
15359;DHT22;7779;49.596;11.070;2022-10-16T11:56:28;22.40;73.40
15359;DHT22;7779;49.596;11.070;2022-10-16T11:59:13;22.40;73.60
15359;DHT22;7779;49.596;11.070;2022-10-16T12:02:07;22.50;73.40
15359;DHT22;7779;49.596;11.070;2022-10-16T12:04:49;22.50;73.60
15359;DHT22;7779;49.596;11.070;2022-10-16T12:07:31;22.70;73.30
15359;DHT22;7779;49.596;11.070;2022-10-16T12:10:30;22.80;73.10
15359;DHT22;7779;49.596;11.070;2022-10-16T12:16:05;22.90;73.40
15359;DHT22;7779;49.596;11.070;2022-10-16T12:18:34;23.00;71.60
15359;DHT22;7779;49.596;11.070;2022-10-16T12:21:00;23.10;72.90
15359;DHT22;7779;49.596;11.070;2022-10-16T12:23:38;23.20;72.70
15359;DHT22;7779;49.596;11.070;2022-10-16T12:26:13;23.30;72.70
15359;DHT22;7779;49.596;11.070;2022-10-16T12:28:38;23.30;72.70
15359;DHT22;7779;49.596;11.070;2022-10-16T12:31:07;23.40;72.70
15359;DHT22;7779;49.596;11.070;2022-10-16T12:33:50;23.50;72.50
15359;DHT22;7779;49.596;11.070;2022-10-16T12:36:33;23.60;70.90
15359;DHT22;7779;49.596;11.070;2022-10-16T12:39:00;23.70;70.50
15359;DHT22;7779;49.596;11.070;2022-10-16T12:41:32;23.80;71.10
15359;DHT22;7779;49.596;11.070;2022-10-16T12:44:00;23.90;70.00
15359;DHT22;7779;49.596;11.070;2022-10-16T12:51:40;23.90;68.10
15359;DHT22;7779;49.596;11.070;2022-10-16T12:56:56;23.90;69.10
15359;DHT22;7779;49.596;11.070;2022-10-16T13:14:26;23.70;68.50
15359;DHT22;7779;49.596;11.070;2022-10-16T13:25:49;23.50;67.30
15359;DHT22;7779;49.596;11.070;2022-10-16T13:28:31;23.40;68.50
15359;DHT22;7779;49.596;11.070;2022-10-16T13:30:59;23.40;68.20
15359;DHT22;7779;49.596;11.070;2022-10-16T13:36:05;23.30;68.30
15359;DHT22;7779;49.596;11.070;2022-10-16T13:38:35;23.20;68.50
15359;DHT22;7779;49.596;11.070;2022-10-16T13:41:12;23.20;68.30
15359;DHT22;7779;49.596;11.070;2022-10-16T13:43:46;23.20;68.30
15359;DHT22;7779;49.596;11.070;2022-10-16T13:46:18;23.20;68.60
15359;DHT22;7779;49.596;11.070;2022-10-16T13:48:56;23.20;68.60
15359;DHT22;7779;49.596;11.070;2022-10-16T13:51:29;23.10;67.70
15359;DHT22;7779;49.596;11.070;2022-10-16T13:53:57;23.00;68.30
15359;DHT22;7779;49.596;11.070;2022-10-16T13:56:27;23.10;68.30
15359;DHT22;7779;49.596;11.070;2022-10-16T13:59:02;23.10;68.00
15359;DHT22;7779;49.596;11.070;2022-10-16T14:01:43;23.10;67.90
15359;DHT22;7779;49.596;11.070;2022-10-16T14:04:11;23.00;67.50
15359;DHT22;7779;49.596;11.070;2022-10-16T14:06:44;23.00;68.00
15359;DHT22;7779;49.596;11.070;2022-10-16T14:09:28;23.00;67.70
15359;DHT22;7779;49.596;11.070;2022-10-16T14:12:07;23.00;67.40
15359;DHT22;7779;49.596;11.070;2022-10-16T14:14:41;23.00;67.60
15359;DHT22;7779;49.596;11.070;2022-10-16T14:17:32;23.00;67.90
15359;DHT22;7779;49.596;11.070;2022-10-16T14:20:04;23.00;67.80
15359;DHT22;7779;49.596;11.070;2022-10-16T14:22:41;23.00;68.30
15359;DHT22;7779;49.596;11.070;2022-10-16T14:27:56;23.00;67.20
15359;DHT22;7779;49.596;11.070;2022-10-16T14:30:24;23.00;68.30
15359;DHT22;7779;49.596;11.070;2022-10-16T14:32:56;23.00;68.20
15359;DHT22;7779;49.596;11.070;2022-10-16T14:35:27;23.00;67.80
15359;DHT22;7779;49.596;11.070;2022-10-16T14:37:59;23.00;68.00
15359;DHT22;7779;49.596;11.070;2022-10-16T14:40:29;22.90;67.80
15359;DHT22;7779;49.596;11.070;2022-10-16T14:42:57;22.90;67.90
15359;DHT22;7779;49.596;11.070;2022-10-16T14:45:34;22.90;67.90
15359;DHT22;7779;49.596;11.070;2022-10-16T14:48:04;22.90;67.40
15359;DHT22;7779;49.596;11.070;2022-10-16T14:50:40;22.80;68.40
15359;DHT22;7779;49.596;11.070;2022-10-16T14:53:12;22.80;67.80
15359;DHT22;7779;49.596;11.070;2022-10-16T14:55:39;22.80;67.50
15359;DHT22;7779;49.596;11.070;2022-10-16T14:58:13;22.80;67.90
15359;DHT22;7779;49.596;11.070;2022-10-16T15:00:41;22.70;67.60
15359;DHT22;7779;49.596;11.070;2022-10-16T15:03:07;22.70;67.90
15359;DHT22;7779;49.596;11.070;2022-10-16T15:05:33;22.70;68.10
15359;DHT22;7779;49.596;11.070;2022-10-16T15:07:59;22.70;68.20
15359;DHT22;7779;49.596;11.070;2022-10-16T15:10:26;22.70;68.30
15359;DHT22;7779;49.596;11.070;2022-10-16T15:12:54;22.70;68.30
15359;DHT22;7779;49.596;11.070;2022-10-16T15:17:49;22.70;68.20
15359;DHT22;7779;49.596;11.070;2022-10-16T15:20:19;22.70;68.40
15359;DHT22;7779;49.596;11.070;2022-10-16T15:22:45;22.80;68.40
15359;DHT22;7779;49.596;11.070;2022-10-16T15:25:53;22.80;68.40
15359;DHT22;7779;49.596;11.070;2022-10-16T15:28:20;22.80;67.90
15359;DHT22;7779;49.596;11.070;2022-10-16T15:30:50;22.80;68.40
15359;DHT22;7779;49.596;11.070;2022-10-16T15:33:19;22.80;68.30
15359;DHT22;7779;49.596;11.070;2022-10-16T15:35:52;22.80;69.00
15359;DHT22;7779;49.596;11.070;2022-10-16T15:38:19;22.70;68.20
15359;DHT22;7779;49.596;11.070;2022-10-16T15:40:48;22.70;68.30
15359;DHT22;7779;49.596;11.070;2022-10-16T15:43:14;22.70;68.30
15359;DHT22;7779;49.596;11.070;2022-10-16T15:45:40;22.70;68.40
15359;DHT22;7779;49.596;11.070;2022-10-16T15:48:06;22.70;68.50
15359;DHT22;7779;49.596;11.070;2022-10-16T15:50:37;22.60;68.60
15359;DHT22;7779;49.596;11.070;2022-10-16T15:53:03;22.50;68.70
15359;DHT22;7779;49.596;11.070;2022-10-16T15:55:29;22.50;68.90
15359;DHT22;7779;49.596;11.070;2022-10-16T15:57:55;22.40;69.00
15359;DHT22;7779;49.596;11.070;2022-10-16T16:00:21;22.40;69.20
15359;DHT22;7779;49.596;11.070;2022-10-16T16:02:52;22.40;69.40
15359;DHT22;7779;49.596;11.070;2022-10-16T16:05:20;22.30;69.60
15359;DHT22;7779;49.596;11.070;2022-10-16T16:07:47;22.30;69.70
15359;DHT22;7779;49.596;11.070;2022-10-16T16:10:13;22.20;69.80
15359;DHT22;7779;49.596;11.070;2022-10-16T16:12:39;22.20;70.00
15359;DHT22;7779;49.596;11.070;2022-10-16T16:15:07;22.10;70.10
15359;DHT22;7779;49.596;11.070;2022-10-16T16:17:35;22.10;70.30
15359;DHT22;7779;49.596;11.070;2022-10-16T16:20:03;22.00;70.40
15359;DHT22;7779;49.596;11.070;2022-10-16T16:22:30;22.00;70.50
15359;DHT22;7779;49.596;11.070;2022-10-16T16:24:55;21.90;70.60
15359;DHT22;7779;49.596;11.070;2022-10-16T16:27:21;21.80;70.60
15359;DHT22;7779;49.596;11.070;2022-10-16T16:29:47;21.80;70.80
15359;DHT22;7779;49.596;11.070;2022-10-16T16:32:13;21.80;71.00
15359;DHT22;7779;49.596;11.070;2022-10-16T16:34:38;21.70;71.00
15359;DHT22;7779;49.596;11.070;2022-10-16T16:37:04;21.70;71.20
15359;DHT22;7779;49.596;11.070;2022-10-16T16:39:30;21.60;71.30
15359;DHT22;7779;49.596;11.070;2022-10-16T16:41:58;21.50;71.40
15359;DHT22;7779;49.596;11.070;2022-10-16T16:44:24;21.50;71.60
15359;DHT22;7779;49.596;11.070;2022-10-16T16:46:51;21.40;71.60
15359;DHT22;7779;49.596;11.070;2022-10-16T16:49:17;21.40;71.80
15359;DHT22;7779;49.596;11.070;2022-10-16T16:51:43;21.30;71.90
15359;DHT22;7779;49.596;11.070;2022-10-16T16:54:10;21.30;72.00
15359;DHT22;7779;49.596;11.070;2022-10-16T16:56:38;21.20;72.00
15359;DHT22;7779;49.596;11.070;2022-10-16T16:59:04;21.20;72.20
15359;DHT22;7779;49.596;11.070;2022-10-16T17:01:30;21.20;72.40
15359;DHT22;7779;49.596;11.070;2022-10-16T17:03:57;21.10;72.50
15359;DHT22;7779;49.596;11.070;2022-10-16T17:06:27;21.10;72.60
15359;DHT22;7779;49.596;11.070;2022-10-16T17:08:55;21.00;72.80
15359;DHT22;7779;49.596;11.070;2022-10-16T17:11:23;21.00;72.90
15359;DHT22;7779;49.596;11.070;2022-10-16T17:13:52;21.00;73.10
15359;DHT22;7779;49.596;11.070;2022-10-16T17:16:20;20.90;73.10
15359;DHT22;7779;49.596;11.070;2022-10-16T17:18:47;20.90;73.30
15359;DHT22;7779;49.596;11.070;2022-10-16T17:21:12;20.80;73.40
15359;DHT22;7779;49.596;11.070;2022-10-16T17:23:38;20.70;73.40
15359;DHT22;7779;49.596;11.070;2022-10-16T17:26:14;20.70;73.50
15359;DHT22;7779;49.596;11.070;2022-10-16T17:28:43;20.70;73.90
15359;DHT22;7779;49.596;11.070;2022-10-16T17:31:15;20.60;73.60
15359;DHT22;7779;49.596;11.070;2022-10-16T17:33:43;20.60;73.70
15359;DHT22;7779;49.596;11.070;2022-10-16T17:36:10;20.60;73.80
15359;DHT22;7779;49.596;11.070;2022-10-16T17:38:39;20.50;73.80
15359;DHT22;7779;49.596;11.070;2022-10-16T17:41:17;20.50;73.80
15359;DHT22;7779;49.596;11.070;2022-10-16T17:43:47;20.50;74.20
15359;DHT22;7779;49.596;11.070;2022-10-16T17:46:16;20.40;73.90
15359;DHT22;7779;49.596;11.070;2022-10-16T17:48:48;20.30;73.90
15359;DHT22;7779;49.596;11.070;2022-10-16T17:51:20;20.30;74.10
15359;DHT22;7779;49.596;11.070;2022-10-16T17:53:53;20.30;74.00
15359;DHT22;7779;49.596;11.070;2022-10-16T17:56:22;20.30;74.10
15359;DHT22;7779;49.596;11.070;2022-10-16T17:58:53;20.30;74.10
15359;DHT22;7779;49.596;11.070;2022-10-16T18:01:27;20.30;74.20
15359;DHT22;7779;49.596;11.070;2022-10-16T18:04:01;20.20;74.20
15359;DHT22;7779;49.596;11.070;2022-10-16T18:06:30;20.20;74.20
15359;DHT22;7779;49.596;11.070;2022-10-16T18:08:57;20.20;74.10